sensor_id;sensor_type;location;lat;lon;timestamp;temperature;humidity
22923;DHT22;11627;51.322;22.816;2022-09-28T00:01:22;11.70;62.10
22923;DHT22;11627;51.322;22.816;2022-09-28T00:03:51;11.90;63.80
22923;DHT22;11627;51.322;22.816;2022-09-28T00:06:21;11.80;65.90
22923;DHT22;11627;51.322;22.816;2022-09-28T00:08:51;11.80;66.70
22923;DHT22;11627;51.322;22.816;2022-09-28T00:11:19;11.60;65.20
22923;DHT22;11627;51.322;22.816;2022-09-28T00:13:49;11.70;56.60
22923;DHT22;11627;51.322;22.816;2022-09-28T00:16:20;11.70;56.70
22923;DHT22;11627;51.322;22.816;2022-09-28T00:18:48;11.60;64.40
22923;DHT22;11627;51.322;22.816;2022-09-28T00:21:18;11.60;64.90
22923;DHT22;11627;51.322;22.816;2022-09-28T00:23:57;11.60;64.40
22923;DHT22;11627;51.322;22.816;2022-09-28T00:26:45;11.90;65.70
22923;DHT22;11627;51.322;22.816;2022-09-28T00:31:53;11.70;67.10
22923;DHT22;11627;51.322;22.816;2022-09-28T00:34:45;11.80;66.00
22923;DHT22;11627;51.322;22.816;2022-09-28T00:37:12;11.60;67.40
22923;DHT22;11627;51.322;22.816;2022-09-28T00:42:14;11.50;67.30
22923;DHT22;11627;51.322;22.816;2022-09-28T00:44:51;11.80;66.80
22923;DHT22;11627;51.322;22.816;2022-09-28T00:50:26;11.60;65.50
22923;DHT22;11627;51.322;22.816;2022-09-28T00:53:01;11.50;63.70
22923;DHT22;11627;51.322;22.816;2022-09-28T00:58:16;11.60;63.60
22923;DHT22;11627;51.322;22.816;2022-09-28T01:00:47;11.50;64.40
22923;DHT22;11627;51.322;22.816;2022-09-28T01:03:15;11.60;64.40
22923;DHT22;11627;51.322;22.816;2022-09-28T01:05:42;11.80;60.10
22923;DHT22;11627;51.322;22.816;2022-09-28T01:08:10;11.80;64.70
22923;DHT22;11627;51.322;22.816;2022-09-28T01:10:38;11.50;64.40
22923;DHT22;11627;51.322;22.816;2022-09-28T01:15:35;11.70;64.40
22923;DHT22;11627;51.322;22.816;2022-09-28T01:18:24;11.70;63.80
22923;DHT22;11627;51.322;22.816;2022-09-28T01:21:01;11.40;57.30
22923;DHT22;11627;51.322;22.816;2022-09-28T01:24:12;11.50;66.40
22923;DHT22;11627;51.322;22.816;2022-09-28T01:30:04;11.40;67.10
22923;DHT22;11627;51.322;22.816;2022-09-28T01:40:52;11.70;66.20
22923;DHT22;11627;51.322;22.816;2022-09-28T01:43:29;11.50;67.20
22923;DHT22;11627;51.322;22.816;2022-09-28T01:46:05;11.50;67.40
22923;DHT22;11627;51.322;22.816;2022-09-28T01:49:04;11.50;67.30
22923;DHT22;11627;51.322;22.816;2022-09-28T01:51:49;11.40;65.50
22923;DHT22;11627;51.322;22.816;2022-09-28T01:54:36;11.60;64.70
22923;DHT22;11627;51.322;22.816;2022-09-28T01:57:49;11.60;63.30
22923;DHT22;11627;51.322;22.816;2022-09-28T02:00:21;11.40;66.40
22923;DHT22;11627;51.322;22.816;2022-09-28T02:02:52;11.50;65.10
22923;DHT22;11627;51.322;22.816;2022-09-28T02:05:32;11.90;65.00
22923;DHT22;11627;51.322;22.816;2022-09-28T02:08:14;11.90;67.00
22923;DHT22;11627;51.322;22.816;2022-09-28T02:11:11;11.80;65.40
22923;DHT22;11627;51.322;22.816;2022-09-28T02:13:48;11.70;62.10
22923;DHT22;11627;51.322;22.816;2022-09-28T02:16:34;11.60;67.60
22923;DHT22;11627;51.322;22.816;2022-09-28T02:25:10;11.60;70.00
22923;DHT22;11627;51.322;22.816;2022-09-28T02:30:25;11.40;72.30
22923;DHT22;11627;51.322;22.816;2022-09-28T02:32:54;11.60;73.50
22923;DHT22;11627;51.322;22.816;2022-09-28T02:35:22;11.10;73.60
22923;DHT22;11627;51.322;22.816;2022-09-28T02:37:48;11.00;73.90
22923;DHT22;11627;51.322;22.816;2022-09-28T02:40:17;11.40;75.60
22923;DHT22;11627;51.322;22.816;2022-09-28T02:51:28;11.10;81.20
22923;DHT22;11627;51.322;22.816;2022-09-28T02:57:02;10.90;82.80
22923;DHT22;11627;51.322;22.816;2022-09-28T03:06:09;10.60;82.90
22923;DHT22;11627;51.322;22.816;2022-09-28T03:08:45;10.80;84.40
22923;DHT22;11627;51.322;22.816;2022-09-28T03:11:27;10.70;83.60
22923;DHT22;11627;51.322;22.816;2022-09-28T03:13:56;11.10;84.00
22923;DHT22;11627;51.322;22.816;2022-09-28T03:16:22;10.70;83.50
22923;DHT22;11627;51.322;22.816;2022-09-28T03:18:48;11.10;83.70
22923;DHT22;11627;51.322;22.816;2022-09-28T03:21:15;11.00;84.20
22923;DHT22;11627;51.322;22.816;2022-09-28T03:23:42;10.80;84.80
22923;DHT22;11627;51.322;22.816;2022-09-28T03:26:10;10.60;84.60
22923;DHT22;11627;51.322;22.816;2022-09-28T03:31:03;10.80;79.90
22923;DHT22;11627;51.322;22.816;2022-09-28T03:35:55;10.60;81.30
22923;DHT22;11627;51.322;22.816;2022-09-28T03:38:21;10.60;84.20
22923;DHT22;11627;51.322;22.816;2022-09-28T03:45:55;11.00;81.70
22923;DHT22;11627;51.322;22.816;2022-09-28T03:48:24;10.70;71.40
22923;DHT22;11627;51.322;22.816;2022-09-28T03:50:53;10.70;81.60
22923;DHT22;11627;51.322;22.816;2022-09-28T03:53:19;10.70;80.80
22923;DHT22;11627;51.322;22.816;2022-09-28T03:55:45;10.80;80.00
22923;DHT22;11627;51.322;22.816;2022-09-28T03:58:11;10.70;76.40
22923;DHT22;11627;51.322;22.816;2022-09-28T04:00:37;10.60;79.70
22923;DHT22;11627;51.322;22.816;2022-09-28T04:03:03;10.90;77.00
22923;DHT22;11627;51.322;22.816;2022-09-28T04:05:31;10.60;75.80
22923;DHT22;11627;51.322;22.816;2022-09-28T04:10:24;10.70;67.30
22923;DHT22;11627;51.322;22.816;2022-09-28T04:12:54;11.10;76.30
22923;DHT22;11627;51.322;22.816;2022-09-28T04:15:24;11.00;73.40
22923;DHT22;11627;51.322;22.816;2022-09-28T04:17:50;10.90;72.70
22923;DHT22;11627;51.322;22.816;2022-09-28T04:20:16;10.80;72.10
22923;DHT22;11627;51.322;22.816;2022-09-28T04:22:43;10.60;74.20
22923;DHT22;11627;51.322;22.816;2022-09-28T04:25:10;10.60;74.50
22923;DHT22;11627;51.322;22.816;2022-09-28T04:27:37;10.50;75.30
22923;DHT22;11627;51.322;22.816;2022-09-28T04:30:22;10.80;76.20
22923;DHT22;11627;51.322;22.816;2022-09-28T04:32:49;11.00;76.70
22923;DHT22;11627;51.322;22.816;2022-09-28T04:35:15;11.00;75.10
22923;DHT22;11627;51.322;22.816;2022-09-28T04:37:40;10.90;73.10
22923;DHT22;11627;51.322;22.816;2022-09-28T04:40:07;10.80;73.60
22923;DHT22;11627;51.322;22.816;2022-09-28T04:42:35;10.90;65.10
22923;DHT22;11627;51.322;22.816;2022-09-28T04:47:29;10.70;63.40
22923;DHT22;11627;51.322;22.816;2022-09-28T04:49:55;10.80;71.60
22923;DHT22;11627;51.322;22.816;2022-09-28T04:54:47;11.10;65.20
22923;DHT22;11627;51.322;22.816;2022-09-28T04:57:14;11.10;71.20
22923;DHT22;11627;51.322;22.816;2022-09-28T04:59:40;10.80;70.30
22923;DHT22;11627;51.322;22.816;2022-09-28T05:02:07;11.00;61.70
22923;DHT22;11627;51.322;22.816;2022-09-28T05:04:34;11.20;64.20
22923;DHT22;11627;51.322;22.816;2022-09-28T05:07:00;11.10;68.00
22923;DHT22;11627;51.322;22.816;2022-09-28T05:09:27;10.80;67.60
22923;DHT22;11627;51.322;22.816;2022-09-28T05:11:53;10.90;68.00
22923;DHT22;11627;51.322;22.816;2022-09-28T05:16:49;11.00;68.00
22923;DHT22;11627;51.322;22.816;2022-09-28T05:19:16;11.10;69.00
22923;DHT22;11627;51.322;22.816;2022-09-28T05:21:45;11.00;59.30
22923;DHT22;11627;51.322;22.816;2022-09-28T05:24:12;10.90;67.40
22923;DHT22;11627;51.322;22.816;2022-09-28T05:26:38;11.10;62.70
22923;DHT22;11627;51.322;22.816;2022-09-28T05:29:05;10.90;68.80
22923;DHT22;11627;51.322;22.816;2022-09-28T05:33:57;11.10;70.40
22923;DHT22;11627;51.322;22.816;2022-09-28T05:36:23;11.30;69.90
22923;DHT22;11627;51.322;22.816;2022-09-28T05:38:51;11.20;69.40
22923;DHT22;11627;51.322;22.816;2022-09-28T05:41:17;11.10;66.80
22923;DHT22;11627;51.322;22.816;2022-09-28T05:43:43;11.00;65.00
22923;DHT22;11627;51.322;22.816;2022-09-28T05:46:10;11.40;64.50
22923;DHT22;11627;51.322;22.816;2022-09-28T05:53:30;11.10;59.60
22923;DHT22;11627;51.322;22.816;2022-09-28T05:56:00;11.00;66.30
22923;DHT22;11627;51.322;22.816;2022-09-28T05:58:27;11.10;63.10
22923;DHT22;11627;51.322;22.816;2022-09-28T06:00:54;10.70;58.80
22923;DHT22;11627;51.322;22.816;2022-09-28T06:05:46;11.00;69.30
22923;DHT22;11627;51.322;22.816;2022-09-28T06:08:13;10.90;71.20
22923;DHT22;11627;51.322;22.816;2022-09-28T06:10:39;11.20;70.90
22923;DHT22;11627;51.322;22.816;2022-09-28T06:13:07;11.10;71.90
22923;DHT22;11627;51.322;22.816;2022-09-28T06:15:34;11.30;72.00
22923;DHT22;11627;51.322;22.816;2022-09-28T06:18:06;11.10;71.30
22923;DHT22;11627;51.322;22.816;2022-09-28T06:20:37;11.30;67.50
22923;DHT22;11627;51.322;22.816;2022-09-28T06:23:05;10.90;72.80
22923;DHT22;11627;51.322;22.816;2022-09-28T06:25:32;10.80;73.90
22923;DHT22;11627;51.322;22.816;2022-09-28T06:27:58;11.20;74.70
22923;DHT22;11627;51.322;22.816;2022-09-28T06:30:27;11.20;75.30
22923;DHT22;11627;51.322;22.816;2022-09-28T06:32:57;11.20;74.60
22923;DHT22;11627;51.322;22.816;2022-09-28T06:35:26;11.30;74.90
22923;DHT22;11627;51.322;22.816;2022-09-28T06:37:57;11.40;74.40
22923;DHT22;11627;51.322;22.816;2022-09-28T06:40:24;11.30;75.10
22923;DHT22;11627;51.322;22.816;2022-09-28T06:43:03;11.10;75.40
22923;DHT22;11627;51.322;22.816;2022-09-28T06:45:35;11.00;76.30
22923;DHT22;11627;51.322;22.816;2022-09-28T06:48:02;11.20;74.50
22923;DHT22;11627;51.322;22.816;2022-09-28T06:50:33;10.90;78.90
22923;DHT22;11627;51.322;22.816;2022-09-28T06:53:03;11.40;78.70
22923;DHT22;11627;51.322;22.816;2022-09-28T06:58:04;11.50;72.70
22923;DHT22;11627;51.322;22.816;2022-09-28T07:00:33;11.40;68.80
22923;DHT22;11627;51.322;22.816;2022-09-28T07:03:03;11.30;79.00
22923;DHT22;11627;51.322;22.816;2022-09-28T07:05:34;11.60;78.80
22923;DHT22;11627;51.322;22.816;2022-09-28T07:08:02;11.40;66.90
22923;DHT22;11627;51.322;22.816;2022-09-28T07:10:30;11.20;75.50
22923;DHT22;11627;51.322;22.816;2022-09-28T07:12:58;11.30;72.50
22923;DHT22;11627;51.322;22.816;2022-09-28T07:15:27;11.30;71.30
22923;DHT22;11627;51.322;22.816;2022-09-28T07:18:00;11.30;71.90
22923;DHT22;11627;51.322;22.816;2022-09-28T07:20:27;11.30;72.30
22923;DHT22;11627;51.322;22.816;2022-09-28T07:22:55;11.60;71.70
22923;DHT22;11627;51.322;22.816;2022-09-28T07:25:23;12.00;69.40
22923;DHT22;11627;51.322;22.816;2022-09-28T07:27:54;11.60;70.10
22923;DHT22;11627;51.322;22.816;2022-09-28T07:30:22;12.00;70.90
22923;DHT22;11627;51.322;22.816;2022-09-28T07:32:50;11.90;67.60
22923;DHT22;11627;51.322;22.816;2022-09-28T07:35:16;11.90;50.00
22923;DHT22;11627;51.322;22.816;2022-09-28T07:37:43;12.00;47.60
22923;DHT22;11627;51.322;22.816;2022-09-28T07:40:10;11.90;37.00
22923;DHT22;11627;51.322;22.816;2022-09-28T07:42:54;11.60;36.40
22923;DHT22;11627;51.322;22.816;2022-09-28T07:47:54;11.80;40.80
22923;DHT22;11627;51.322;22.816;2022-09-28T07:50:20;11.90;48.70
22923;DHT22;11627;51.322;22.816;2022-09-28T07:52:48;12.20;54.90
22923;DHT22;11627;51.322;22.816;2022-09-28T07:55:14;12.00;41.50
22923;DHT22;11627;51.322;22.816;2022-09-28T07:57:40;12.00;32.20
22923;DHT22;11627;51.322;22.816;2022-09-28T08:00:07;11.90;26.40
22923;DHT22;11627;51.322;22.816;2022-09-28T08:02:35;11.80;22.10
22923;DHT22;11627;51.322;22.816;2022-09-28T08:05:03;11.90;33.90
22923;DHT22;11627;51.322;22.816;2022-09-28T08:07:30;11.90;31.70
22923;DHT22;11627;51.322;22.816;2022-09-28T08:09:58;11.80;23.00
22923;DHT22;11627;51.322;22.816;2022-09-28T08:12:25;11.70;18.30
22923;DHT22;11627;51.322;22.816;2022-09-28T08:14:53;11.70;24.00
22923;DHT22;11627;51.322;22.816;2022-09-28T08:17:20;12.00;26.50
22923;DHT22;11627;51.322;22.816;2022-09-28T08:19:47;11.70;15.60
22923;DHT22;11627;51.322;22.816;2022-09-28T08:22:31;11.80;18.40
22923;DHT22;11627;51.322;22.816;2022-09-28T08:24:57;11.80;21.80
22923;DHT22;11627;51.322;22.816;2022-09-28T08:27:23;11.80;13.40
22923;DHT22;11627;51.322;22.816;2022-09-28T08:32:16;12.10;20.50
22923;DHT22;11627;51.322;22.816;2022-09-28T08:37:10;12.30;12.40
22923;DHT22;11627;51.322;22.816;2022-09-28T08:39:37;12.00;6.70
22923;DHT22;11627;51.322;22.816;2022-09-28T08:44:57;12.00;1.00
22923;DHT22;11627;51.322;22.816;2022-09-28T08:50:48;12.30;1.00
22923;DHT22;11627;51.322;22.816;2022-09-28T08:56:28;12.20;1.00
22923;DHT22;11627;51.322;22.816;2022-09-28T08:59:25;12.20;1.00
22923;DHT22;11627;51.322;22.816;2022-09-28T09:02:00;12.70;1.00
22923;DHT22;11627;51.322;22.816;2022-09-28T09:04:28;12.60;1.00
22923;DHT22;11627;51.322;22.816;2022-09-28T09:07:05;12.80;1.00
22923;DHT22;11627;51.322;22.816;2022-09-28T09:19:52;12.50;1.00
22923;DHT22;11627;51.322;22.816;2022-09-28T09:22:39;12.50;1.00
22923;DHT22;11627;51.322;22.816;2022-09-28T09:30:19;12.50;1.00
22923;DHT22;11627;51.322;22.816;2022-09-28T09:46:25;12.30;1.00
22923;DHT22;11627;51.322;22.816;2022-09-28T09:49:27;13.00;1.00
22923;DHT22;11627;51.322;22.816;2022-09-28T09:55:44;12.90;1.00
22923;DHT22;11627;51.322;22.816;2022-09-28T09:58:21;12.90;1.00
22923;DHT22;11627;51.322;22.816;2022-09-28T10:00:53;12.70;1.00
22923;DHT22;11627;51.322;22.816;2022-09-28T10:03:28;13.00;1.00
22923;DHT22;11627;51.322;22.816;2022-09-28T10:06:16;13.00;1.00
22923;DHT22;11627;51.322;22.816;2022-09-28T10:08:48;13.20;1.00
22923;DHT22;11627;51.322;22.816;2022-09-28T10:11:24;13.00;1.00
22923;DHT22;11627;51.322;22.816;2022-09-28T10:16:20;13.70;1.00
22923;DHT22;11627;51.322;22.816;2022-09-28T10:21:20;13.50;1.00
22923;DHT22;11627;51.322;22.816;2022-09-28T10:23:51;13.70;1.00
22923;DHT22;11627;51.322;22.816;2022-09-28T10:26:24;13.60;1.00
22923;DHT22;11627;51.322;22.816;2022-09-28T10:29:04;13.50;1.00
22923;DHT22;11627;51.322;22.816;2022-09-28T10:31:50;13.60;1.00
22923;DHT22;11627;51.322;22.816;2022-09-28T10:34:23;13.80;99.90
22923;DHT22;11627;51.322;22.816;2022-09-28T10:37:02;13.30;1.00
22923;DHT22;11627;51.322;22.816;2022-09-28T10:42:31;13.70;1.00
22923;DHT22;11627;51.322;22.816;2022-09-28T10:45:20;13.70;1.00
22923;DHT22;11627;51.322;22.816;2022-09-28T10:47:50;13.70;1.00
22923;DHT22;11627;51.322;22.816;2022-09-28T10:50:23;13.80;1.00
22923;DHT22;11627;51.322;22.816;2022-09-28T10:52:51;13.90;99.90
22923;DHT22;11627;51.322;22.816;2022-09-28T10:57:46;14.00;1.00
22923;DHT22;11627;51.322;22.816;2022-09-28T11:02:57;13.90;1.00
22923;DHT22;11627;51.322;22.816;2022-09-28T11:05:25;13.10;1.00
22923;DHT22;11627;51.322;22.816;2022-09-28T11:07:53;12.60;1.00
22923;DHT22;11627;51.322;22.816;2022-09-28T11:10:27;12.10;1.00
22923;DHT22;11627;51.322;22.816;2022-09-28T11:12:55;12.30;1.00
22923;DHT22;11627;51.322;22.816;2022-09-28T11:15:30;12.00;1.00
22923;DHT22;11627;51.322;22.816;2022-09-28T11:18:18;12.40;1.00
22923;DHT22;11627;51.322;22.816;2022-09-28T11:20:48;12.10;1.00
22923;DHT22;11627;51.322;22.816;2022-09-28T11:23:25;12.20;1.00
22923;DHT22;11627;51.322;22.816;2022-09-28T11:26:03;12.50;1.00
22923;DHT22;11627;51.322;22.816;2022-09-28T11:28:33;12.60;1.00
22923;DHT22;11627;51.322;22.816;2022-09-28T11:31:02;12.60;1.00
22923;DHT22;11627;51.322;22.816;2022-09-28T11:33:41;12.90;1.00
22923;DHT22;11627;51.322;22.816;2022-09-28T11:44:48;13.10;1.00
22923;DHT22;11627;51.322;22.816;2022-09-28T11:47:40;13.60;1.00
22923;DHT22;11627;51.322;22.816;2022-09-28T12:01:11;13.80;1.00
22923;DHT22;11627;51.322;22.816;2022-09-28T12:03:56;13.70;1.00
22923;DHT22;11627;51.322;22.816;2022-09-28T12:06:53;13.70;1.00
22923;DHT22;11627;51.322;22.816;2022-09-28T12:09:56;13.80;1.00
22923;DHT22;11627;51.322;22.816;2022-09-28T12:12:56;13.60;1.00
22923;DHT22;11627;51.322;22.816;2022-09-28T12:19:04;13.70;1.00
22923;DHT22;11627;51.322;22.816;2022-09-28T12:22:10;14.00;1.00
22923;DHT22;11627;51.322;22.816;2022-09-28T12:24:51;14.00;1.00
22923;DHT22;11627;51.322;22.816;2022-09-28T12:30:03;14.00;99.90
22923;DHT22;11627;51.322;22.816;2022-09-28T12:32:37;13.60;99.90
22923;DHT22;11627;51.322;22.816;2022-09-28T12:38:58;13.70;1.00
22923;DHT22;11627;51.322;22.816;2022-09-28T12:41:36;14.10;99.90
22923;DHT22;11627;51.322;22.816;2022-09-28T12:59:17;14.20;99.90
22923;DHT22;11627;51.322;22.816;2022-09-28T13:11:42;14.30;99.90
22923;DHT22;11627;51.322;22.816;2022-09-28T13:18:18;14.30;99.90
22923;DHT22;11627;51.322;22.816;2022-09-28T13:23:42;14.40;99.90
22923;DHT22;11627;51.322;22.816;2022-09-28T13:28:50;14.70;99.90
22923;DHT22;11627;51.322;22.816;2022-09-28T13:31:23;14.50;99.90
22923;DHT22;11627;51.322;22.816;2022-09-28T13:34:00;14.50;99.90
22923;DHT22;11627;51.322;22.816;2022-09-28T13:38:54;14.90;99.90
22923;DHT22;11627;51.322;22.816;2022-09-28T13:41:35;14.50;99.90
22923;DHT22;11627;51.322;22.816;2022-09-28T13:50:35;14.70;99.90
22923;DHT22;11627;51.322;22.816;2022-09-28T13:52:46;15.00;99.90
22923;DHT22;11627;51.322;22.816;2022-09-28T13:55:24;14.70;99.90
22923;DHT22;11627;51.322;22.816;2022-09-28T13:58:34;14.70;99.90
22923;DHT22;11627;51.322;22.816;2022-09-28T14:01:09;15.10;99.90
22923;DHT22;11627;51.322;22.816;2022-09-28T14:07:25;14.70;29.30
22923;DHT22;11627;51.322;22.816;2022-09-28T14:32:55;15.00;99.90
22923;DHT22;11627;51.322;22.816;2022-09-28T14:35:32;15.10;1.00
22923;DHT22;11627;51.322;22.816;2022-09-28T14:38:13;15.00;1.00
22923;DHT22;11627;51.322;22.816;2022-09-28T14:41:02;14.90;1.00
22923;DHT22;11627;51.322;22.816;2022-09-28T14:49:03;15.40;99.90
22923;DHT22;11627;51.322;22.816;2022-09-28T14:59:22;15.40;32.60
22923;DHT22;11627;51.322;22.816;2022-09-28T15:01:57;15.30;99.90
22923;DHT22;11627;51.322;22.816;2022-09-28T15:04:28;15.50;1.00
22923;DHT22;11627;51.322;22.816;2022-09-28T15:06:55;15.40;1.00
22923;DHT22;11627;51.322;22.816;2022-09-28T15:09:35;15.60;1.00
22923;DHT22;11627;51.322;22.816;2022-09-28T15:12:15;15.40;99.90
22923;DHT22;11627;51.322;22.816;2022-09-28T15:15:05;15.60;99.90
22923;DHT22;11627;51.322;22.816;2022-09-28T15:17:34;15.30;99.90
22923;DHT22;11627;51.322;22.816;2022-09-28T15:20:26;15.40;99.90
22923;DHT22;11627;51.322;22.816;2022-09-28T15:22:56;14.80;99.90
22923;DHT22;11627;51.322;22.816;2022-09-28T15:25:27;15.10;99.90
22923;DHT22;11627;51.322;22.816;2022-09-28T15:27:56;14.70;1.00
22923;DHT22;11627;51.322;22.816;2022-09-28T15:30:34;14.70;99.90
22923;DHT22;11627;51.322;22.816;2022-09-28T15:33:02;14.30;99.90
22923;DHT22;11627;51.322;22.816;2022-09-28T15:36:03;14.40;86.70
22923;DHT22;11627;51.322;22.816;2022-09-28T15:38:32;14.20;1.00
22923;DHT22;11627;51.322;22.816;2022-09-28T15:41:02;14.30;99.90
22923;DHT22;11627;51.322;22.816;2022-09-28T15:43:32;14.10;99.90
22923;DHT22;11627;51.322;22.816;2022-09-28T15:46:20;14.20;99.90
22923;DHT22;11627;51.322;22.816;2022-09-28T15:48:54;14.00;99.90
22923;DHT22;11627;51.322;22.816;2022-09-28T15:51:25;14.00;99.90
22923;DHT22;11627;51.322;22.816;2022-09-28T15:57:01;13.90;99.90
22923;DHT22;11627;51.322;22.816;2022-09-28T15:59:40;14.00;99.90
22923;DHT22;11627;51.322;22.816;2022-09-28T16:02:26;13.60;1.00
22923;DHT22;11627;51.322;22.816;2022-09-28T16:05:00;13.70;1.00
22923;DHT22;11627;51.322;22.816;2022-09-28T16:12:55;13.40;99.90
22923;DHT22;11627;51.322;22.816;2022-09-28T16:15:30;13.40;95.30
22923;DHT22;11627;51.322;22.816;2022-09-28T16:18:18;13.10;65.00
22923;DHT22;11627;51.322;22.816;2022-09-28T16:20:51;13.30;3.10
22923;DHT22;11627;51.322;22.816;2022-09-28T16:23:28;13.20;22.30
22923;DHT22;11627;51.322;22.816;2022-09-28T16:26:15;13.10;99.90
22923;DHT22;11627;51.322;22.816;2022-09-28T16:28:54;13.10;99.90
22923;DHT22;11627;51.322;22.816;2022-09-28T16:31:26;12.90;99.90
22923;DHT22;11627;51.322;22.816;2022-09-28T16:34:16;12.70;99.90
22923;DHT22;11627;51.322;22.816;2022-09-28T16:36:47;12.70;99.90
22923;DHT22;11627;51.322;22.816;2022-09-28T16:39:16;12.90;99.90
22923;DHT22;11627;51.322;22.816;2022-09-28T16:41:53;12.60;99.90
22923;DHT22;11627;51.322;22.816;2022-09-28T16:44:24;12.60;99.90
22923;DHT22;11627;51.322;22.816;2022-09-28T16:46:52;12.60;99.90
22923;DHT22;11627;51.322;22.816;2022-09-28T16:49:23;12.50;99.90
22923;DHT22;11627;51.322;22.816;2022-09-28T16:51:51;12.30;99.90
22923;DHT22;11627;51.322;22.816;2022-09-28T16:54:36;12.30;99.90
22923;DHT22;11627;51.322;22.816;2022-09-28T16:57:22;12.40;99.90
22923;DHT22;11627;51.322;22.816;2022-09-28T16:59:49;12.20;99.90
22923;DHT22;11627;51.322;22.816;2022-09-28T17:02:20;12.20;1.00
22923;DHT22;11627;51.322;22.816;2022-09-28T17:04:51;12.10;99.90
22923;DHT22;11627;51.322;22.816;2022-09-28T17:07:18;12.10;99.90
22923;DHT22;11627;51.322;22.816;2022-09-28T17:09:46;12.00;99.90
22923;DHT22;11627;51.322;22.816;2022-09-28T17:12:18;12.10;99.90
22923;DHT22;11627;51.322;22.816;2022-09-28T17:14:48;11.90;99.90
22923;DHT22;11627;51.322;22.816;2022-09-28T17:17:15;11.80;99.90
22923;DHT22;11627;51.322;22.816;2022-09-28T17:19:43;11.70;1.00
22923;DHT22;11627;51.322;22.816;2022-09-28T17:22:10;11.70;99.90
22923;DHT22;11627;51.322;22.816;2022-09-28T17:24:37;11.80;1.00
22923;DHT22;11627;51.322;22.816;2022-09-28T17:27:04;11.70;99.90
22923;DHT22;11627;51.322;22.816;2022-09-28T17:29:32;11.80;99.90
22923;DHT22;11627;51.322;22.816;2022-09-28T17:31:59;11.70;99.90
22923;DHT22;11627;51.322;22.816;2022-09-28T17:34:27;11.50;99.90
22923;DHT22;11627;51.322;22.816;2022-09-28T17:39:21;11.70;99.90
22923;DHT22;11627;51.322;22.816;2022-09-28T17:44:18;11.70;1.00
22923;DHT22;11627;51.322;22.816;2022-09-28T17:46:46;11.60;99.90
22923;DHT22;11627;51.322;22.816;2022-09-28T17:49:15;11.40;99.90
22923;DHT22;11627;51.322;22.816;2022-09-28T17:51:43;11.60;99.90
22923;DHT22;11627;51.322;22.816;2022-09-28T17:54:10;11.80;99.90
22923;DHT22;11627;51.322;22.816;2022-09-28T17:56:39;11.60;99.90
22923;DHT22;11627;51.322;22.816;2022-09-28T17:59:12;11.90;99.90
22923;DHT22;11627;51.322;22.816;2022-09-28T18:01:40;11.80;99.90
22923;DHT22;11627;51.322;22.816;2022-09-28T18:04:09;11.70;99.90
22923;DHT22;11627;51.322;22.816;2022-09-28T18:06:41;12.00;99.90
22923;DHT22;11627;51.322;22.816;2022-09-28T18:09:12;11.70;99.90
22923;DHT22;11627;51.322;22.816;2022-09-28T18:11:42;12.30;99.90
22923;DHT22;11627;51.322;22.816;2022-09-28T18:14:10;11.80;99.90
22923;DHT22;11627;51.322;22.816;2022-09-28T18:16:37;11.80;99.90
22923;DHT22;11627;51.322;22.816;2022-09-28T18:19:06;12.00;99.90
22923;DHT22;11627;51.322;22.816;2022-09-28T18:21:33;12.10;99.90
22923;DHT22;11627;51.322;22.816;2022-09-28T18:24:00;11.80;99.90
22923;DHT22;11627;51.322;22.816;2022-09-28T18:26:27;12.00;99.90
22923;DHT22;11627;51.322;22.816;2022-09-28T18:28:54;12.10;99.90
22923;DHT22;11627;51.322;22.816;2022-09-28T18:31:22;11.80;1.00
22923;DHT22;11627;51.322;22.816;2022-09-28T18:33:55;12.20;1.00
22923;DHT22;11627;51.322;22.816;2022-09-28T18:36:31;11.80;1.00
22923;DHT22;11627;51.322;22.816;2022-09-28T18:39:02;11.70;1.00
22923;DHT22;11627;51.322;22.816;2022-09-28T18:41:29;11.90;1.00
22923;DHT22;11627;51.322;22.816;2022-09-28T18:43:56;11.60;1.00
22923;DHT22;11627;51.322;22.816;2022-09-28T18:46:30;11.80;1.00
22923;DHT22;11627;51.322;22.816;2022-09-28T18:49:03;11.60;1.00
22923;DHT22;11627;51.322;22.816;2022-09-28T18:51:30;12.00;1.00
22923;DHT22;11627;51.322;22.816;2022-09-28T18:53:56;11.90;1.00
22923;DHT22;11627;51.322;22.816;2022-09-28T18:56:23;11.70;1.00
22923;DHT22;11627;51.322;22.816;2022-09-28T18:58:52;11.70;1.00
22923;DHT22;11627;51.322;22.816;2022-09-28T19:01:20;11.60;1.00
22923;DHT22;11627;51.322;22.816;2022-09-28T19:03:47;11.90;1.00
22923;DHT22;11627;51.322;22.816;2022-09-28T19:06:15;11.90;1.00
22923;DHT22;11627;51.322;22.816;2022-09-28T19:08:43;11.70;1.00
22923;DHT22;11627;51.322;22.816;2022-09-28T19:11:28;11.60;1.00
22923;DHT22;11627;51.322;22.816;2022-09-28T19:13:55;11.60;1.00
22923;DHT22;11627;51.322;22.816;2022-09-28T19:16:27;11.80;1.00
22923;DHT22;11627;51.322;22.816;2022-09-28T19:18:59;11.60;1.00
22923;DHT22;11627;51.322;22.816;2022-09-28T19:21:28;11.60;1.00
22923;DHT22;11627;51.322;22.816;2022-09-28T19:23:55;11.50;1.90
22923;DHT22;11627;51.322;22.816;2022-09-28T19:26:27;11.40;7.00
22923;DHT22;11627;51.322;22.816;2022-09-28T19:28:55;11.70;3.60
22923;DHT22;11627;51.322;22.816;2022-09-28T19:31:25;11.70;8.00
22923;DHT22;11627;51.322;22.816;2022-09-28T19:33:52;11.70;14.30
22923;DHT22;11627;51.322;22.816;2022-09-28T19:36:23;11.50;17.50
22923;DHT22;11627;51.322;22.816;2022-09-28T19:38:56;11.80;14.60
22923;DHT22;11627;51.322;22.816;2022-09-28T19:41:30;11.80;19.20
22923;DHT22;11627;51.322;22.816;2022-09-28T19:44:23;11.50;10.20
22923;DHT22;11627;51.322;22.816;2022-09-28T19:46:56;11.40;14.80
22923;DHT22;11627;51.322;22.816;2022-09-28T19:49:36;11.40;12.20
22923;DHT22;11627;51.322;22.816;2022-09-28T19:52:10;11.40;11.80
22923;DHT22;11627;51.322;22.816;2022-09-28T19:54:45;11.40;9.10
22923;DHT22;11627;51.322;22.816;2022-09-28T19:57:26;11.50;7.50
22923;DHT22;11627;51.322;22.816;2022-09-28T19:59:58;11.20;7.20
22923;DHT22;11627;51.322;22.816;2022-09-28T20:02:27;11.30;4.40
22923;DHT22;11627;51.322;22.816;2022-09-28T20:04:54;11.10;8.30
22923;DHT22;11627;51.322;22.816;2022-09-28T20:07:21;11.30;8.50
22923;DHT22;11627;51.322;22.816;2022-09-28T20:09:48;11.10;10.50
22923;DHT22;11627;51.322;22.816;2022-09-28T20:12:15;11.10;4.40
22923;DHT22;11627;51.322;22.816;2022-09-28T20:14:42;11.10;12.00
22923;DHT22;11627;51.322;22.816;2022-09-28T20:17:11;11.50;4.90
22923;DHT22;11627;51.322;22.816;2022-09-28T20:19:38;11.10;10.20
22923;DHT22;11627;51.322;22.816;2022-09-28T20:22:05;11.00;8.70
22923;DHT22;11627;51.322;22.816;2022-09-28T20:24:32;11.10;7.50